sensor_id;sensor_type;location;lat;lon;timestamp;noise_LAeq;noise_LA_min;noise_LA_max;noise_LA01;noise_LA95
56099;Laerm;44276;49.534;6.378;2024-01-15T00:01:14;42.34;40.13;48.31;;
56099;Laerm;44276;49.534;6.378;2024-01-15T00:03:43;44.06;40.79;54.80;;
56099;Laerm;44276;49.534;6.378;2024-01-15T00:06:14;42.41;40.62;48.48;;
56099;Laerm;44276;49.534;6.378;2024-01-15T00:08:42;42.58;40.71;47.74;;
56099;Laerm;44276;49.534;6.378;2024-01-15T00:11:10;42.52;40.62;50.43;;
56099;Laerm;44276;49.534;6.378;2024-01-15T00:13:39;42.94;40.71;52.29;;
56099;Laerm;44276;49.534;6.378;2024-01-15T00:16:07;42.85;40.53;52.14;;
56099;Laerm;44276;49.534;6.378;2024-01-15T00:18:37;42.76;40.23;57.91;;
56099;Laerm;44276;49.534;6.378;2024-01-15T00:21:05;43.09;40.03;50.68;;
56099;Laerm;44276;49.534;6.378;2024-01-15T00:23:33;42.54;40.71;49.15;;
56099;Laerm;44276;49.534;6.378;2024-01-15T00:26:02;42.56;40.62;48.42;;
56099;Laerm;44276;49.534;6.378;2024-01-15T00:28:33;42.43;40.62;46.52;;
56099;Laerm;44276;49.534;6.378;2024-01-15T00:31:02;43.27;40.33;55.45;;
56099;Laerm;44276;49.534;6.378;2024-01-15T00:33:30;42.39;40.43;48.05;;
56099;Laerm;44276;49.534;6.378;2024-01-15T00:36:00;42.17;40.43;46.28;;
56099;Laerm;44276;49.534;6.378;2024-01-15T00:38:30;43.07;40.53;55.58;;
56099;Laerm;44276;49.534;6.378;2024-01-15T00:40:58;42.45;40.80;53.37;;
56099;Laerm;44276;49.534;6.378;2024-01-15T00:43:26;42.33;40.62;48.40;;
56099;Laerm;44276;49.534;6.378;2024-01-15T00:45:54;42.40;40.62;46.87;;
56099;Laerm;44276;49.534;6.378;2024-01-15T00:48:23;42.64;40.62;48.69;;
56099;Laerm;44276;49.534;6.378;2024-01-15T00:50:51;42.72;40.53;53.68;;
56099;Laerm;44276;49.534;6.378;2024-01-15T00:53:22;43.92;40.80;56.29;;
56099;Laerm;44276;49.534;6.378;2024-01-15T00:55:51;42.33;40.71;49.07;;
56099;Laerm;44276;49.534;6.378;2024-01-15T00:58:19;42.17;40.71;45.20;;
56099;Laerm;44276;49.534;6.378;2024-01-15T01:00:47;42.30;40.62;46.40;;
56099;Laerm;44276;49.534;6.378;2024-01-15T01:03:16;42.17;40.62;43.99;;
56099;Laerm;44276;49.534;6.378;2024-01-15T01:05:44;42.46;40.71;49.88;;
56099;Laerm;44276;49.534;6.378;2024-01-15T01:08:13;42.14;40.80;43.54;;
56099;Laerm;44276;49.534;6.378;2024-01-15T01:10:42;42.26;40.71;48.36;;
56099;Laerm;44276;49.534;6.378;2024-01-15T01:13:11;42.42;40.71;48.37;;
56099;Laerm;44276;49.534;6.378;2024-01-15T01:15:39;42.63;40.53;51.37;;
56099;Laerm;44276;49.534;6.378;2024-01-15T01:18:07;42.34;40.33;48.66;;
56099;Laerm;44276;49.534;6.378;2024-01-15T01:20:36;42.22;40.62;44.23;;
56099;Laerm;44276;49.534;6.378;2024-01-15T01:23:05;42.22;40.43;44.11;;
56099;Laerm;44276;49.534;6.378;2024-01-15T01:25:33;42.20;40.62;44.19;;
56099;Laerm;44276;49.534;6.378;2024-01-15T01:28:03;42.67;40.89;48.48;;
56099;Laerm;44276;49.534;6.378;2024-01-15T01:30:31;42.80;40.62;51.00;;
56099;Laerm;44276;49.534;6.378;2024-01-15T01:33:00;43.50;40.71;52.66;;
56099;Laerm;44276;49.534;6.378;2024-01-15T01:35:28;42.74;40.43;49.39;;
56099;Laerm;44276;49.534;6.378;2024-01-15T01:37:56;42.50;40.71;47.30;;
56099;Laerm;44276;49.534;6.378;2024-01-15T01:40:25;42.52;40.53;45.94;;
56099;Laerm;44276;49.534;6.378;2024-01-15T01:42:53;42.46;40.71;46.35;;
56099;Laerm;44276;49.534;6.378;2024-01-15T01:45:23;42.60;40.53;47.14;;
56099;Laerm;44276;49.534;6.378;2024-01-15T01:47:51;42.29;40.71;45.99;;
56099;Laerm;44276;49.534;6.378;2024-01-15T01:50:20;42.96;40.80;51.22;;
56099;Laerm;44276;49.534;6.378;2024-01-15T01:52:49;42.86;40.80;50.93;;
56099;Laerm;44276;49.534;6.378;2024-01-15T01:55:19;42.43;40.80;47.04;;
56099;Laerm;44276;49.534;6.378;2024-01-15T01:57:49;42.52;40.71;46.76;;
56099;Laerm;44276;49.534;6.378;2024-01-15T02:00:18;42.97;40.96;49.79;;
56099;Laerm;44276;49.534;6.378;2024-01-15T02:02:48;42.32;40.62;46.07;;
56099;Laerm;44276;49.534;6.378;2024-01-15T02:05:19;42.29;40.71;44.58;;
56099;Laerm;44276;49.534;6.378;2024-01-15T02:07:49;42.76;40.62;49.58;;
56099;Laerm;44276;49.534;6.378;2024-01-15T02:10:17;42.30;40.80;44.51;;
56099;Laerm;44276;49.534;6.378;2024-01-15T02:12:46;42.71;40.89;48.64;;
56099;Laerm;44276;49.534;6.378;2024-01-15T02:15:16;42.63;40.62;48.29;;
56099;Laerm;44276;49.534;6.378;2024-01-15T02:18:07;43.12;40.80;53.01;;
56099;Laerm;44276;49.534;6.378;2024-01-15T02:20:36;43.04;40.89;52.23;;
56099;Laerm;44276;49.534;6.378;2024-01-15T02:23:09;42.84;40.89;48.74;;
56099;Laerm;44276;49.534;6.378;2024-01-15T02:25:40;42.74;40.80;50.02;;
56099;Laerm;44276;49.534;6.378;2024-01-15T02:28:10;42.40;40.89;44.97;;
56099;Laerm;44276;49.534;6.378;2024-01-15T02:30:40;42.69;40.80;46.57;;
56099;Laerm;44276;49.534;6.378;2024-01-15T02:33:11;42.32;40.80;43.99;;
56099;Laerm;44276;49.534;6.378;2024-01-15T02:35:40;42.34;40.62;44.47;;
56099;Laerm;44276;49.534;6.378;2024-01-15T02:38:10;42.65;41.03;51.82;;
56099;Laerm;44276;49.534;6.378;2024-01-15T02:40:38;42.54;40.89;47.14;;
56099;Laerm;44276;49.534;6.378;2024-01-15T02:43:07;42.58;40.62;46.73;;
56099;Laerm;44276;49.534;6.378;2024-01-15T02:45:35;42.58;40.80;47.59;;
56099;Laerm;44276;49.534;6.378;2024-01-15T02:48:04;42.44;40.98;48.49;;
56099;Laerm;44276;49.534;6.378;2024-01-15T02:50:32;43.33;41.06;55.08;;
56099;Laerm;44276;49.534;6.378;2024-01-15T02:53:01;43.43;40.62;54.94;;
56099;Laerm;44276;49.534;6.378;2024-01-15T02:55:30;42.69;40.98;48.20;;
56099;Laerm;44276;49.534;6.378;2024-01-15T02:57:59;42.55;40.80;49.66;;
56099;Laerm;44276;49.534;6.378;2024-01-15T03:00:27;43.25;40.80;52.78;;
56099;Laerm;44276;49.534;6.378;2024-01-15T03:02:56;43.14;40.98;52.02;;
56099;Laerm;44276;49.534;6.378;2024-01-15T03:05:24;42.83;41.14;51.49;;
56099;Laerm;44276;49.534;6.378;2024-01-15T03:07:52;43.49;40.62;54.67;;
56099;Laerm;44276;49.534;6.378;2024-01-15T03:10:21;42.74;40.98;49.14;;
56099;Laerm;44276;49.534;6.378;2024-01-15T03:12:50;42.66;40.80;47.36;;
56099;Laerm;44276;49.534;6.378;2024-01-15T03:15:19;42.48;40.89;45.23;;
56099;Laerm;44276;49.534;6.378;2024-01-15T03:17:47;42.49;40.89;44.58;;
56099;Laerm;44276;49.534;6.378;2024-01-15T03:20:15;42.69;40.71;45.69;;
56099;Laerm;44276;49.534;6.378;2024-01-15T03:22:44;42.73;41.06;46.59;;
56099;Laerm;44276;49.534;6.378;2024-01-15T03:25:12;42.76;40.89;48.05;;
56099;Laerm;44276;49.534;6.378;2024-01-15T03:27:41;42.83;40.98;47.63;;
56099;Laerm;44276;49.534;6.378;2024-01-15T03:30:12;42.86;41.14;51.97;;
56099;Laerm;44276;49.534;6.378;2024-01-15T03:32:41;43.17;40.88;50.56;;
56099;Laerm;44276;49.534;6.378;2024-01-15T03:35:09;42.85;40.89;51.39;;
56099;Laerm;44276;49.534;6.378;2024-01-15T03:37:38;43.02;41.06;49.02;;
56099;Laerm;44276;49.534;6.378;2024-01-15T03:40:08;42.68;40.79;45.45;;
56099;Laerm;44276;49.534;6.378;2024-01-15T03:42:36;42.65;40.89;45.63;;
56099;Laerm;44276;49.534;6.378;2024-01-15T03:45:05;42.79;41.14;49.78;;
56099;Laerm;44276;49.534;6.378;2024-01-15T03:47:35;42.80;40.71;48.05;;
56099;Laerm;44276;49.534;6.378;2024-01-15T03:50:05;42.55;40.89;45.01;;
56099;Laerm;44276;49.534;6.378;2024-01-15T03:52:33;43.08;41.06;48.07;;
56099;Laerm;44276;49.534;6.378;2024-01-15T03:55:01;42.74;40.98;48.85;;
56099;Laerm;44276;49.534;6.378;2024-01-15T03:57:30;42.63;40.89;45.89;;
56099;Laerm;44276;49.534;6.378;2024-01-15T03:59:58;42.66;41.14;45.63;;
56099;Laerm;44276;49.534;6.378;2024-01-15T04:02:27;42.78;41.06;49.44;;
56099;Laerm;44276;49.534;6.378;2024-01-15T04:04:56;42.71;41.06;49.96;;
56099;Laerm;44276;49.534;6.378;2024-01-15T04:07:25;43.03;40.98;50.31;;
56099;Laerm;44276;49.534;6.378;2024-01-15T04:09:53;43.04;40.98;49.28;;
56099;Laerm;44276;49.534;6.378;2024-01-15T04:12:21;42.83;41.22;46.76;;
56099;Laerm;44276;49.534;6.378;2024-01-15T04:14:50;43.59;41.06;52.41;;
56099;Laerm;44276;49.534;6.378;2024-01-15T04:17:18;43.14;41.30;48.92;;
56099;Laerm;44276;49.534;6.378;2024-01-15T04:19:48;43.02;40.98;46.38;;
56099;Laerm;44276;49.534;6.378;2024-01-15T04:22:18;43.84;41.14;56.86;;
56099;Laerm;44276;49.534;6.378;2024-01-15T04:24:46;43.21;40.89;53.31;;
56099;Laerm;44276;49.534;6.378;2024-01-15T04:27:15;42.91;40.96;45.91;;
56099;Laerm;44276;49.534;6.378;2024-01-15T04:29:43;42.79;41.22;48.96;;
56099;Laerm;44276;49.534;6.378;2024-01-15T04:32:12;42.92;41.30;48.87;;
56099;Laerm;44276;49.534;6.378;2024-01-15T04:34:40;42.81;40.98;46.27;;
56099;Laerm;44276;49.534;6.378;2024-01-15T04:37:09;43.00;41.22;46.82;;
56099;Laerm;44276;49.534;6.378;2024-01-15T04:39:39;42.75;41.30;46.18;;
56099;Laerm;44276;49.534;6.378;2024-01-15T04:42:07;43.27;41.22;48.20;;
56099;Laerm;44276;49.534;6.378;2024-01-15T04:44:36;43.30;41.33;50.95;;
56099;Laerm;44276;49.534;6.378;2024-01-15T04:47:04;42.87;41.22;45.72;;
56099;Laerm;44276;49.534;6.378;2024-01-15T04:49:32;43.02;40.80;46.91;;
56099;Laerm;44276;49.534;6.378;2024-01-15T04:52:01;43.44;41.22;48.91;;
56099;Laerm;44276;49.534;6.378;2024-01-15T04:54:29;43.09;41.22;45.69;;
56099;Laerm;44276;49.534;6.378;2024-01-15T04:56:59;43.03;40.96;46.18;;
56099;Laerm;44276;49.534;6.378;2024-01-15T04:59:27;43.32;41.30;47.04;;
56099;Laerm;44276;49.534;6.378;2024-01-15T05:01:56;43.07;41.14;46.15;;
56099;Laerm;44276;49.534;6.378;2024-01-15T05:04:24;43.19;40.98;46.23;;
56099;Laerm;44276;49.534;6.378;2024-01-15T05:06:53;42.77;41.06;44.65;;
56099;Laerm;44276;49.534;6.378;2024-01-15T05:09:22;42.94;41.30;45.27;;
56099;Laerm;44276;49.534;6.378;2024-01-15T05:11:50;42.93;41.22;45.89;;
56099;Laerm;44276;49.534;6.378;2024-01-15T05:14:20;43.36;41.22;49.15;;
56099;Laerm;44276;49.534;6.378;2024-01-15T05:16:49;43.48;41.22;49.00;;
56099;Laerm;44276;49.534;6.378;2024-01-15T05:19:18;43.31;41.38;50.01;;
56099;Laerm;44276;49.534;6.378;2024-01-15T05:21:47;43.36;41.06;49.16;;
56099;Laerm;44276;49.534;6.378;2024-01-15T05:24:15;42.99;41.30;45.83;;
56099;Laerm;44276;49.534;6.378;2024-01-15T05:26:44;43.18;41.14;46.69;;
56099;Laerm;44276;49.534;6.378;2024-01-15T05:29:12;43.19;41.30;46.20;;
56099;Laerm;44276;49.534;6.378;2024-01-15T05:31:42;43.01;41.30;45.69;;
56099;Laerm;44276;49.534;6.378;2024-01-15T05:34:11;43.14;41.46;45.83;;
56099;Laerm;44276;49.534;6.378;2024-01-15T05:36:39;43.09;41.26;45.45;;
56099;Laerm;44276;49.534;6.378;2024-01-15T05:39:07;43.85;41.14;56.00;;
56099;Laerm;44276;49.534;6.378;2024-01-15T05:41:36;42.91;41.06;44.87;;
56099;Laerm;44276;49.534;6.378;2024-01-15T05:44:04;43.08;41.30;47.26;;
56099;Laerm;44276;49.534;6.378;2024-01-15T05:46:33;42.81;41.30;44.97;;
56099;Laerm;44276;49.534;6.378;2024-01-15T05:49:02;42.92;41.46;44.62;;
56099;Laerm;44276;49.534;6.378;2024-01-15T05:51:31;42.98;41.38;45.23;;
56099;Laerm;44276;49.534;6.378;2024-01-15T05:53:59;43.07;41.46;47.40;;
56099;Laerm;44276;49.534;6.378;2024-01-15T05:56:27;43.24;41.38;48.15;;
56099;Laerm;44276;49.534;6.378;2024-01-15T05:58:56;42.99;41.30;45.57;;
56099;Laerm;44276;49.534;6.378;2024-01-15T06:01:24;43.10;41.30;46.10;;
56099;Laerm;44276;49.534;6.378;2024-01-15T06:03:53;43.13;41.30;46.43;;
56099;Laerm;44276;49.534;6.378;2024-01-15T06:06:23;43.21;41.38;49.16;;
56099;Laerm;44276;49.534;6.378;2024-01-15T06:08:51;42.96;41.46;46.71;;
56099;Laerm;44276;49.534;6.378;2024-01-15T06:11:20;43.11;41.38;46.97;;
56099;Laerm;44276;49.534;6.378;2024-01-15T06:13:48;43.01;41.30;45.14;;
56099;Laerm;44276;49.534;6.378;2024-01-15T06:16:17;43.32;41.46;48.99;;
56099;Laerm;44276;49.534;6.378;2024-01-15T06:18:47;42.97;41.61;45.14;;
56099;Laerm;44276;49.534;6.378;2024-01-15T06:21:15;43.21;41.38;48.15;;
56099;Laerm;44276;49.534;6.378;2024-01-15T06:23:45;42.97;41.38;44.87;;
56099;Laerm;44276;49.534;6.378;2024-01-15T06:26:13;43.25;41.61;47.74;;
56099;Laerm;44276;49.534;6.378;2024-01-15T06:28:42;43.42;41.61;51.08;;
56099;Laerm;44276;49.534;6.378;2024-01-15T06:31:10;43.07;41.06;47.32;;
56099;Laerm;44276;49.534;6.378;2024-01-15T06:33:39;43.45;41.30;48.85;;
56099;Laerm;44276;49.534;6.378;2024-01-15T06:36:08;43.31;41.53;49.95;;
56099;Laerm;44276;49.534;6.378;2024-01-15T06:38:37;43.25;41.46;46.55;;
56099;Laerm;44276;49.534;6.378;2024-01-15T06:41:07;43.38;41.53;48.61;;
56099;Laerm;44276;49.534;6.378;2024-01-15T06:43:36;43.25;41.53;48.59;;
56099;Laerm;44276;49.534;6.378;2024-01-15T06:46:10;43.09;41.38;45.77;;
56099;Laerm;44276;49.534;6.378;2024-01-15T06:48:45;43.13;41.38;45.51;;
56099;Laerm;44276;49.534;6.378;2024-01-15T06:51:18;43.41;41.61;51.28;;
56099;Laerm;44276;49.534;6.378;2024-01-15T06:53:48;43.65;41.53;52.55;;
56099;Laerm;44276;49.534;6.378;2024-01-15T06:56:18;43.68;41.38;53.51;;
56099;Laerm;44276;49.534;6.378;2024-01-15T06:58:49;43.53;41.53;51.50;;
56099;Laerm;44276;49.534;6.378;2024-01-15T07:01:21;43.25;41.38;46.71;;
56099;Laerm;44276;49.534;6.378;2024-01-15T07:03:53;43.16;41.46;48.00;;
56099;Laerm;44276;49.534;6.378;2024-01-15T07:06:21;43.08;41.61;50.32;;
56099;Laerm;44276;49.534;6.378;2024-01-15T07:08:55;42.99;41.30;45.39;;
56099;Laerm;44276;49.534;6.378;2024-01-15T07:11:35;42.93;41.53;44.51;;
56099;Laerm;44276;49.534;6.378;2024-01-15T07:14:09;42.93;41.22;46.07;;
56099;Laerm;44276;49.534;6.378;2024-01-15T07:16:43;42.96;41.14;45.97;;
56099;Laerm;44276;49.534;6.378;2024-01-15T07:19:14;42.85;41.46;44.35;;
56099;Laerm;44276;49.534;6.378;2024-01-15T07:21:43;42.99;41.46;46.35;;
56099;Laerm;44276;49.534;6.378;2024-01-15T07:24:11;42.87;41.46;44.31;;
56099;Laerm;44276;49.534;6.378;2024-01-15T07:26:41;42.88;41.06;45.48;;
56099;Laerm;44276;49.534;6.378;2024-01-15T07:29:09;42.90;41.30;44.62;;
56099;Laerm;44276;49.534;6.378;2024-01-15T07:31:38;42.86;41.53;45.14;;
56099;Laerm;44276;49.534;6.378;2024-01-15T07:34:07;42.78;41.06;43.90;;
56099;Laerm;44276;49.534;6.378;2024-01-15T07:36:35;42.79;41.06;44.11;;
56099;Laerm;44276;49.534;6.378;2024-01-15T07:39:04;42.87;41.30;45.27;;
56099;Laerm;44276;49.534;6.378;2024-01-15T07:41:32;42.79;41.30;43.94;;
56099;Laerm;44276;49.534;6.378;2024-01-15T07:44:03;42.92;41.38;44.54;;
56099;Laerm;44276;49.534;6.378;2024-01-15T07:46:31;42.90;41.30;47.26;;
56099;Laerm;44276;49.534;6.378;2024-01-15T07:49:00;42.86;41.61;44.23;;
56099;Laerm;44276;49.534;6.378;2024-01-15T07:51:28;42.80;41.38;44.54;;
56099;Laerm;44276;49.534;6.378;2024-01-15T07:53:57;42.89;41.53;47.00;;
56099;Laerm;44276;49.534;6.378;2024-01-15T07:56:25;42.84;41.46;45.48;;
56099;Laerm;44276;49.534;6.378;2024-01-15T07:58:54;42.81;41.46;44.19;;
56099;Laerm;44276;49.534;6.378;2024-01-15T08:01:24;42.79;41.38;44.95;;
56099;Laerm;44276;49.534;6.378;2024-01-15T08:03:52;42.81;41.53;46.10;;
56099;Laerm;44276;49.534;6.378;2024-01-15T08:06:22;42.90;41.38;45.33;;
56099;Laerm;44276;49.534;6.378;2024-01-15T08:08:51;42.87;41.53;45.72;;
56099;Laerm;44276;49.534;6.378;2024-01-15T08:11:19;43.17;41.22;54.55;;
56099;Laerm;44276;49.534;6.378;2024-01-15T08:13:48;42.88;41.38;45.11;;
56099;Laerm;44276;49.534;6.378;2024-01-15T08:16:16;42.84;41.30;44.23;;
56099;Laerm;44276;49.534;6.378;2024-01-15T08:18:46;42.84;41.38;44.19;;
56099;Laerm;44276;49.534;6.378;2024-01-15T08:21:15;42.87;41.53;44.39;;
56099;Laerm;44276;49.534;6.378;2024-01-15T08:23:43;42.84;41.46;44.35;;
56099;Laerm;44276;49.534;6.378;2024-01-15T08:26:12;42.83;41.46;43.94;;
56099;Laerm;44276;49.534;6.378;2024-01-15T08:28:40;42.87;41.61;44.31;;
56099;Laerm;44276;49.534;6.378;2024-01-15T08:31:09;42.82;41.38;43.86;;
56099;Laerm;44276;49.534;6.378;2024-01-15T08:33:37;42.84;41.46;43.90;;
56099;Laerm;44276;49.534;6.378;2024-01-15T08:36:09;42.84;41.22;44.15;;
56099;Laerm;44276;49.534;6.378;2024-01-15T08:38:37;42.83;41.61;44.19;;
56099;Laerm;44276;49.534;6.378;2024-01-15T08:41:06;42.83;41.06;43.99;;
56099;Laerm;44276;49.534;6.378;2024-01-15T08:43:35;42.83;41.61;45.42;;
56099;Laerm;44276;49.534;6.378;2024-01-15T08:46:03;42.85;40.98;44.19;;
56099;Laerm;44276;49.534;6.378;2024-01-15T08:48:32;42.89;41.46;44.39;;
56099;Laerm;44276;49.534;6.378;2024-01-15T08:51:00;42.85;41.22;44.31;;
56099;Laerm;44276;49.534;6.378;2024-01-15T08:53:30;42.96;41.38;45.36;;
56099;Laerm;44276;49.534;6.378;2024-01-15T08:55:58;42.93;41.61;44.54;;
56099;Laerm;44276;49.534;6.378;2024-01-15T08:58:27;42.88;41.30;43.99;;
56099;Laerm;44276;49.534;6.378;2024-01-15T09:00:55;43.02;41.46;44.97;;
56099;Laerm;44276;49.534;6.378;2024-01-15T09:03:24;42.87;41.61;44.03;;
56099;Laerm;44276;49.534;6.378;2024-01-15T09:05:52;42.94;41.61;44.19;;
56099;Laerm;44276;49.534;6.378;2024-01-15T09:08:21;42.95;41.68;44.43;;
56099;Laerm;44276;49.534;6.378;2024-01-15T09:10:51;42.96;41.53;44.97;;
56099;Laerm;44276;49.534;6.378;2024-01-15T09:13:19;42.92;41.53;43.99;;
56099;Laerm;44276;49.534;6.378;2024-01-15T09:15:49;43.00;41.53;45.11;;
56099;Laerm;44276;49.534;6.378;2024-01-15T09:18:17;42.96;41.14;44.73;;
56099;Laerm;44276;49.534;6.378;2024-01-15T09:20:45;43.01;41.61;45.80;;
56099;Laerm;44276;49.534;6.378;2024-01-15T09:23:14;43.00;41.68;45.01;;
56099;Laerm;44276;49.534;6.378;2024-01-15T09:25:42;43.11;41.61;45.11;;
56099;Laerm;44276;49.534;6.378;2024-01-15T09:28:12;43.07;41.53;45.17;;
56099;Laerm;44276;49.534;6.378;2024-01-15T09:30:40;43.10;41.61;44.83;;
56099;Laerm;44276;49.534;6.378;2024-01-15T09:33:09;43.06;41.53;44.94;;
56099;Laerm;44276;49.534;6.378;2024-01-15T09:35:37;43.01;41.30;44.11;;
56099;Laerm;44276;49.534;6.378;2024-01-15T09:38:05;43.06;41.61;44.58;;
56099;Laerm;44276;49.534;6.378;2024-01-15T09:40:38;43.03;41.75;44.19;;
56099;Laerm;44276;49.534;6.378;2024-01-15T09:43:06;43.07;41.61;45.01;;
56099;Laerm;44276;49.534;6.378;2024-01-15T09:45:36;43.04;41.26;44.31;;
56099;Laerm;44276;49.534;6.378;2024-01-15T09:48:06;43.09;41.46;47.18;;
56099;Laerm;44276;49.534;6.378;2024-01-15T09:50:34;43.13;41.68;45.86;;
56099;Laerm;44276;49.534;6.378;2024-01-15T09:53:05;43.12;41.89;45.33;;
56099;Laerm;44276;49.534;6.378;2024-01-15T09:55:34;43.09;41.89;45.07;;
56099;Laerm;44276;49.534;6.378;2024-01-15T09:58:03;43.03;41.46;45.54;;
56099;Laerm;44276;49.534;6.378;2024-01-15T10:00:33;43.02;41.53;44.34;;
56099;Laerm;44276;49.534;6.378;2024-01-15T10:03:07;43.06;41.61;44.43;;
56099;Laerm;44276;49.534;6.378;2024-01-15T10:05:37;43.04;41.61;44.19;;
56099;Laerm;44276;49.534;6.378;2024-01-15T10:08:07;43.03;41.46;44.65;;
56099;Laerm;44276;49.534;6.378;2024-01-15T10:10:36;43.04;41.53;44.19;;
56099;Laerm;44276;49.534;6.378;2024-01-15T10:13:05;43.04;41.46;44.43;;
56099;Laerm;44276;49.534;6.378;2024-01-15T10:15:34;43.06;41.61;44.87;;
56099;Laerm;44276;49.534;6.378;2024-01-15T10:18:05;43.15;41.61;49.71;;
56099;Laerm;44276;49.534;6.378;2024-01-15T10:20:34;43.05;41.68;44.31;;
56099;Laerm;44276;49.534;6.378;2024-01-15T10:23:03;43.10;41.75;47.12;;
56099;Laerm;44276;49.534;6.378;2024-01-15T10:25:32;43.01;41.53;44.23;;
56099;Laerm;44276;49.534;6.378;2024-01-15T10:28:02;43.01;41.75;44.19;;
56099;Laerm;44276;49.534;6.378;2024-01-15T10:30:32;43.02;41.75;44.27;;
56099;Laerm;44276;49.534;6.378;2024-01-15T10:33:03;43.03;41.61;44.62;;
56099;Laerm;44276;49.534;6.378;2024-01-15T10:35:34;43.03;41.61;44.11;;
56099;Laerm;44276;49.534;6.378;2024-01-15T10:38:05;43.06;41.75;44.11;;
56099;Laerm;44276;49.534;6.378;2024-01-15T10:40:34;43.06;41.61;44.90;;
56099;Laerm;44276;49.534;6.378;2024-01-15T10:43:03;43.05;41.61;44.65;;
56099;Laerm;44276;49.534;6.378;2024-01-15T10:45:31;43.06;41.53;44.69;;
56099;Laerm;44276;49.534;6.378;2024-01-15T10:48:00;43.05;41.46;44.47;;
56099;Laerm;44276;49.534;6.378;2024-01-15T10:50:32;43.05;41.61;44.31;;
56099;Laerm;44276;49.534;6.378;2024-01-15T10:53:01;43.12;41.53;45.42;;
56099;Laerm;44276;49.534;6.378;2024-01-15T10:55:33;43.29;41.68;49.71;;
56099;Laerm;44276;49.534;6.378;2024-01-15T10:58:03;43.02;41.38;44.23;;
56099;Laerm;44276;49.534;6.378;2024-01-15T11:00:32;43.03;41.61;44.11;;
56099;Laerm;44276;49.534;6.378;2024-01-15T11:03:01;43.04;41.81;44.23;;
56099;Laerm;44276;49.534;6.378;2024-01-15T11:05:37;43.05;41.82;44.43;;
56099;Laerm;44276;49.534;6.378;2024-01-15T11:08:07;43.00;41.53;44.80;;
56099;Laerm;44276;49.534;6.378;2024-01-15T11:10:41;43.01;41.75;44.65;;
56099;Laerm;44276;49.534;6.378;2024-01-15T11:13:13;43.07;41.46;45.51;;
56099;Laerm;44276;49.534;6.378;2024-01-15T11:15:59;43.08;41.68;47.98;;
56099;Laerm;44276;49.534;6.378;2024-01-15T11:18:29;42.95;41.46;44.23;;
56099;Laerm;44276;49.534;6.378;2024-01-15T11:21:27;43.14;41.61;45.75;;
56099;Laerm;44276;49.534;6.378;2024-01-15T11:23:59;43.61;41.53;51.25;;
56099;Laerm;44276;49.534;6.378;2024-01-15T11:26:36;43.26;41.68;52.16;;
56099;Laerm;44276;49.534;6.378;2024-01-15T11:29:07;43.43;41.61;54.61;;
56099;Laerm;44276;49.534;6.378;2024-01-15T11:31:59;43.10;41.30;48.31;;
56099;Laerm;44276;49.534;6.378;2024-01-15T11:34:54;43.06;41.14;51.37;;
56099;Laerm;44276;49.534;6.378;2024-01-15T11:37:28;43.03;41.61;46.55;;
56099;Laerm;44276;49.534;6.378;2024-01-15T11:40:02;42.84;41.30;45.07;;
56099;Laerm;44276;49.534;6.378;2024-01-15T11:42:31;42.98;41.26;45.57;;
56099;Laerm;44276;49.534;6.378;2024-01-15T11:45:00;42.89;41.30;44.39;;
56099;Laerm;44276;49.534;6.378;2024-01-15T11:48:11;43.01;41.61;45.01;;
56099;Laerm;44276;49.534;6.378;2024-01-15T11:50:42;43.82;41.61;55.94;;
56099;Laerm;44276;49.534;6.378;2024-01-15T11:53:32;43.71;41.53;51.13;;
56099;Laerm;44276;49.534;6.378;2024-01-15T11:56:08;42.91;41.38;46.07;;
56099;Laerm;44276;49.534;6.378;2024-01-15T11:58:38;43.16;41.22;53.96;;
56099;Laerm;44276;49.534;6.378;2024-01-15T12:01:07;42.98;41.14;48.07;;
56099;Laerm;44276;49.534;6.378;2024-01-15T12:03:35;42.95;41.30;49.97;;
56099;Laerm;44276;49.534;6.378;2024-01-15T12:06:06;42.99;41.06;51.70;;
56099;Laerm;44276;49.534;6.378;2024-01-15T12:08:36;42.70;40.89;45.86;;
56099;Laerm;44276;49.534;6.378;2024-01-15T12:11:11;43.31;40.71;56.22;;
56099;Laerm;44276;49.534;6.378;2024-01-15T12:13:41;43.14;40.89;50.93;;
56099;Laerm;44276;49.534;6.378;2024-01-15T12:16:10;42.73;40.71;50.19;;
56099;Laerm;44276;49.534;6.378;2024-01-15T12:18:38;43.00;40.43;56.86;;
56099;Laerm;44276;49.534;6.378;2024-01-15T12:21:07;42.89;40.13;52.28;;
56099;Laerm;44276;49.534;6.378;2024-01-15T12:23:37;44.01;39.81;57.13;;
56099;Laerm;44276;49.534;6.378;2024-01-15T12:26:06;43.89;39.58;59.52;;
56099;Laerm;44276;49.534;6.378;2024-01-15T12:28:36;44.97;40.08;60.80;;
56099;Laerm;44276;49.534;6.378;2024-01-15T12:31:06;44.93;39.81;59.08;;
56099;Laerm;44276;49.534;6.378;2024-01-15T12:33:35;45.74;39.58;62.02;;
56099;Laerm;44276;49.534;6.378;2024-01-15T12:36:05;43.69;39.70;57.01;;
56099;Laerm;44276;49.534;6.378;2024-01-15T12:38:33;44.67;40.62;55.24;;
56099;Laerm;44276;49.534;6.378;2024-01-15T12:41:03;44.76;40.62;58.07;;
56099;Laerm;44276;49.534;6.378;2024-01-15T12:43:32;43.93;40.53;52.19;;
56099;Laerm;44276;49.534;6.378;2024-01-15T12:46:01;44.17;39.81;61.61;;
56099;Laerm;44276;49.534;6.378;2024-01-15T12:48:29;43.74;40.23;57.57;;
56099;Laerm;44276;49.534;6.378;2024-01-15T12:50:58;44.04;39.70;57.47;;
56099;Laerm;44276;49.534;6.378;2024-01-15T12:53:26;47.09;40.62;62.71;;
56099;Laerm;44276;49.534;6.378;2024-01-15T12:55:54;45.01;38.81;56.56;;
56099;Laerm;44276;49.534;6.378;2024-01-15T12:58:24;43.78;40.13;50.96;;
56099;Laerm;44276;49.534;6.378;2024-01-15T13:00:52;43.77;40.03;53.17;;
56099;Laerm;44276;49.534;6.378;2024-01-15T13:03:22;43.64;40.13;59.31;;
56099;Laerm;44276;49.534;6.378;2024-01-15T13:05:50;44.00;39.58;58.10;;
56099;Laerm;44276;49.534;6.378;2024-01-15T13:08:19;43.75;40.33;50.32;;
56099;Laerm;44276;49.534;6.378;2024-01-15T13:10:50;46.69;39.81;64.30;;
56099;Laerm;44276;49.534;6.378;2024-01-15T13:13:19;44.91;40.03;56.79;;
56099;Laerm;44276;49.534;6.378;2024-01-15T13:15:49;44.09;39.81;54.72;;
56099;Laerm;44276;49.534;6.378;2024-01-15T13:18:17;44.63;40.13;58.57;;
56099;Laerm;44276;49.534;6.378;2024-01-15T13:20:46;47.47;40.13;62.20;;
56099;Laerm;44276;49.534;6.378;2024-01-15T13:23:14;43.30;39.58;54.49;;
56099;Laerm;44276;49.534;6.378;2024-01-15T13:25:43;42.98;39.34;51.52;;
56099;Laerm;44276;49.534;6.378;2024-01-15T13:28:11;43.92;40.13;54.51;;
56099;Laerm;44276;49.534;6.378;2024-01-15T13:30:40;44.52;39.81;59.26;;
56099;Laerm;44276;49.534;6.378;2024-01-15T13:33:10;43.57;39.34;51.46;;
56099;Laerm;44276;49.534;6.378;2024-01-15T13:35:39;46.03;39.34;62.17;;
56099;Laerm;44276;49.534;6.378;2024-01-15T13:38:07;45.07;39.70;58.10;;
56099;Laerm;44276;49.534;6.378;2024-01-15T13:40:36;43.39;39.21;48.31;;
56099;Laerm;44276;49.534;6.378;2024-01-15T13:43:04;43.50;38.95;50.17;;
56099;Laerm;44276;49.534;6.378;2024-01-15T13:45:35;42.66;38.95;48.28;;
56099;Laerm;44276;49.534;6.378;2024-01-15T13:48:05;42.91;38.81;48.10;;
56099;Laerm;44276;49.534;6.378;2024-01-15T13:50:36;44.14;39.92;54.25;;
56099;Laerm;44276;49.534;6.378;2024-01-15T13:53:05;46.50;39.70;59.95;;
56099;Laerm;44276;49.534;6.378;2024-01-15T13:55:33;43.72;38.81;60.11;;
56099;Laerm;44276;49.534;6.378;2024-01-15T13:58:01;43.36;38.67;48.43;;